sensor_id;sensor_type;location;lat;lon;timestamp;P1;durP1;ratioP1;P2;durP2;ratioP2
55063;SDS011;40963;52.168;21.296;2023-06-19T00:01:54;16.05;;;10.57;;
55063;SDS011;40963;52.168;21.296;2023-06-19T00:04:20;16.58;;;10.38;;
55063;SDS011;40963;52.168;21.296;2023-06-19T00:06:45;19.95;;;10.50;;
55063;SDS011;40963;52.168;21.296;2023-06-19T00:09:11;20.48;;;10.70;;
55063;SDS011;40963;52.168;21.296;2023-06-19T00:11:36;15.40;;;9.95;;
55063;SDS011;40963;52.168;21.296;2023-06-19T00:14:02;18.23;;;10.02;;
55063;SDS011;40963;52.168;21.296;2023-06-19T00:16:28;16.13;;;9.82;;
55063;SDS011;40963;52.168;21.296;2023-06-19T00:18:54;13.95;;;9.80;;
55063;SDS011;40963;52.168;21.296;2023-06-19T00:21:22;17.90;;;10.00;;
55063;SDS011;40963;52.168;21.296;2023-06-19T00:23:49;18.50;;;10.02;;
55063;SDS011;40963;52.168;21.296;2023-06-19T00:26:16;18.52;;;10.73;;
55063;SDS011;40963;52.168;21.296;2023-06-19T00:28:41;14.15;;;9.82;;
55063;SDS011;40963;52.168;21.296;2023-06-19T00:31:10;16.42;;;10.68;;
55063;SDS011;40963;52.168;21.296;2023-06-19T00:33:38;16.50;;;10.48;;
55063;SDS011;40963;52.168;21.296;2023-06-19T00:36:10;15.18;;;10.25;;
55063;SDS011;40963;52.168;21.296;2023-06-19T00:38:38;14.25;;;10.18;;
55063;SDS011;40963;52.168;21.296;2023-06-19T00:41:04;32.17;;;10.85;;
55063;SDS011;40963;52.168;21.296;2023-06-19T00:43:30;15.95;;;10.85;;
55063;SDS011;40963;52.168;21.296;2023-06-19T00:46:00;17.25;;;11.40;;
55063;SDS011;40963;52.168;21.296;2023-06-19T00:48:27;21.60;;;11.13;;
55063;SDS011;40963;52.168;21.296;2023-06-19T00:50:53;15.05;;;11.10;;
55063;SDS011;40963;52.168;21.296;2023-06-19T00:53:21;13.68;;;10.20;;
55063;SDS011;40963;52.168;21.296;2023-06-19T00:55:48;15.07;;;10.52;;
55063;SDS011;40963;52.168;21.296;2023-06-19T00:58:16;13.55;;;9.43;;
55063;SDS011;40963;52.168;21.296;2023-06-19T01:00:42;19.23;;;9.60;;
55063;SDS011;40963;52.168;21.296;2023-06-19T01:03:08;18.15;;;10.35;;
55063;SDS011;40963;52.168;21.296;2023-06-19T01:05:34;17.13;;;10.43;;
55063;SDS011;40963;52.168;21.296;2023-06-19T01:10:35;17.42;;;11.18;;
55063;SDS011;40963;52.168;21.296;2023-06-19T01:13:12;18.70;;;11.02;;
55063;SDS011;40963;52.168;21.296;2023-06-19T01:15:44;16.15;;;10.63;;
55063;SDS011;40963;52.168;21.296;2023-06-19T01:18:12;15.20;;;10.15;;
55063;SDS011;40963;52.168;21.296;2023-06-19T01:20:38;21.67;;;11.35;;
55063;SDS011;40963;52.168;21.296;2023-06-19T01:23:11;18.38;;;11.55;;
55063;SDS011;40963;52.168;21.296;2023-06-19T01:25:37;21.75;;;13.80;;
55063;SDS011;40963;52.168;21.296;2023-06-19T01:28:04;19.30;;;13.10;;
55063;SDS011;40963;52.168;21.296;2023-06-19T01:30:32;22.77;;;13.93;;
55063;SDS011;40963;52.168;21.296;2023-06-19T01:35:48;19.00;;;12.02;;
55063;SDS011;40963;52.168;21.296;2023-06-19T01:38:15;21.80;;;13.23;;
55063;SDS011;40963;52.168;21.296;2023-06-19T01:40:42;21.92;;;13.77;;
55063;SDS011;40963;52.168;21.296;2023-06-19T01:43:08;25.08;;;14.60;;
55063;SDS011;40963;52.168;21.296;2023-06-19T01:45:35;20.90;;;14.30;;
55063;SDS011;40963;52.168;21.296;2023-06-19T01:48:01;25.80;;;13.55;;
55063;SDS011;40963;52.168;21.296;2023-06-19T01:50:26;25.42;;;14.02;;
55063;SDS011;40963;52.168;21.296;2023-06-19T01:52:52;22.65;;;13.50;;
55063;SDS011;40963;52.168;21.296;2023-06-19T01:55:17;21.95;;;13.43;;
55063;SDS011;40963;52.168;21.296;2023-06-19T01:57:43;20.77;;;12.70;;
55063;SDS011;40963;52.168;21.296;2023-06-19T02:00:10;25.65;;;13.00;;
55063;SDS011;40963;52.168;21.296;2023-06-19T02:02:36;23.17;;;12.48;;
55063;SDS011;40963;52.168;21.296;2023-06-19T02:05:02;32.47;;;13.20;;
55063;SDS011;40963;52.168;21.296;2023-06-19T02:07:29;17.00;;;12.02;;
55063;SDS011;40963;52.168;21.296;2023-06-19T02:09:55;19.95;;;11.88;;
55063;SDS011;40963;52.168;21.296;2023-06-19T02:12:21;18.73;;;12.13;;
55063;SDS011;40963;52.168;21.296;2023-06-19T02:14:47;25.90;;;12.30;;
55063;SDS011;40963;52.168;21.296;2023-06-19T02:17:12;18.48;;;11.93;;
55063;SDS011;40963;52.168;21.296;2023-06-19T02:19:38;19.90;;;11.63;;
55063;SDS011;40963;52.168;21.296;2023-06-19T02:22:04;28.52;;;9.77;;
55063;SDS011;40963;52.168;21.296;2023-06-19T02:24:31;16.08;;;10.25;;
55063;SDS011;40963;52.168;21.296;2023-06-19T02:26:57;19.73;;;11.82;;
55063;SDS011;40963;52.168;21.296;2023-06-19T02:29:23;21.42;;;12.20;;
55063;SDS011;40963;52.168;21.296;2023-06-19T02:31:49;22.15;;;12.68;;
55063;SDS011;40963;52.168;21.296;2023-06-19T02:34:15;18.92;;;11.75;;
55063;SDS011;40963;52.168;21.296;2023-06-19T02:36:41;17.83;;;11.57;;
55063;SDS011;40963;52.168;21.296;2023-06-19T02:39:07;20.83;;;12.18;;
55063;SDS011;40963;52.168;21.296;2023-06-19T02:41:33;19.73;;;11.77;;
55063;SDS011;40963;52.168;21.296;2023-06-19T02:43:59;21.27;;;12.65;;
55063;SDS011;40963;52.168;21.296;2023-06-19T02:46:25;22.83;;;11.77;;
55063;SDS011;40963;52.168;21.296;2023-06-19T02:48:51;20.77;;;11.95;;
55063;SDS011;40963;52.168;21.296;2023-06-19T02:51:16;22.48;;;11.90;;
55063;SDS011;40963;52.168;21.296;2023-06-19T02:53:42;21.38;;;13.18;;
55063;SDS011;40963;52.168;21.296;2023-06-19T02:56:09;23.33;;;12.68;;
55063;SDS011;40963;52.168;21.296;2023-06-19T02:58:34;22.25;;;11.77;;
55063;SDS011;40963;52.168;21.296;2023-06-19T03:01:02;25.63;;;11.07;;
55063;SDS011;40963;52.168;21.296;2023-06-19T03:03:28;27.05;;;13.23;;
55063;SDS011;40963;52.168;21.296;2023-06-19T03:05:54;20.98;;;13.00;;
55063;SDS011;40963;52.168;21.296;2023-06-19T03:08:20;23.10;;;13.82;;
55063;SDS011;40963;52.168;21.296;2023-06-19T03:10:46;22.85;;;13.40;;
55063;SDS011;40963;52.168;21.296;2023-06-19T03:13:12;26.70;;;14.90;;
55063;SDS011;40963;52.168;21.296;2023-06-19T03:15:38;25.67;;;13.25;;
55063;SDS011;40963;52.168;21.296;2023-06-19T03:18:04;25.77;;;16.00;;
55063;SDS011;40963;52.168;21.296;2023-06-19T03:20:32;26.42;;;14.38;;
55063;SDS011;40963;52.168;21.296;2023-06-19T03:22:58;25.75;;;14.32;;
55063;SDS011;40963;52.168;21.296;2023-06-19T03:25:23;23.77;;;14.38;;
55063;SDS011;40963;52.168;21.296;2023-06-19T03:27:49;26.90;;;15.45;;
55063;SDS011;40963;52.168;21.296;2023-06-19T03:30:14;30.52;;;14.48;;
55063;SDS011;40963;52.168;21.296;2023-06-19T03:32:43;22.83;;;14.55;;
55063;SDS011;40963;52.168;21.296;2023-06-19T03:35:09;23.15;;;14.57;;
55063;SDS011;40963;52.168;21.296;2023-06-19T03:37:35;27.02;;;14.02;;
55063;SDS011;40963;52.168;21.296;2023-06-19T03:40:01;24.73;;;15.02;;
55063;SDS011;40963;52.168;21.296;2023-06-19T03:42:28;21.83;;;14.27;;
55063;SDS011;40963;52.168;21.296;2023-06-19T03:44:54;27.00;;;14.35;;
55063;SDS011;40963;52.168;21.296;2023-06-19T03:47:20;32.20;;;15.10;;
55063;SDS011;40963;52.168;21.296;2023-06-19T03:49:46;38.85;;;15.13;;
55063;SDS011;40963;52.168;21.296;2023-06-19T03:52:13;27.75;;;15.18;;
55063;SDS011;40963;52.168;21.296;2023-06-19T03:54:39;27.33;;;15.07;;
55063;SDS011;40963;52.168;21.296;2023-06-19T03:57:05;28.13;;;14.95;;
55063;SDS011;40963;52.168;21.296;2023-06-19T03:59:31;24.15;;;14.75;;
55063;SDS011;40963;52.168;21.296;2023-06-19T04:01:57;31.40;;;14.95;;
55063;SDS011;40963;52.168;21.296;2023-06-19T04:04:22;25.10;;;15.15;;
55063;SDS011;40963;52.168;21.296;2023-06-19T04:06:49;29.63;;;15.32;;
55063;SDS011;40963;52.168;21.296;2023-06-19T04:09:14;27.50;;;15.32;;
55063;SDS011;40963;52.168;21.296;2023-06-19T04:11:40;38.03;;;16.02;;
55063;SDS011;40963;52.168;21.296;2023-06-19T04:14:06;30.80;;;16.20;;
55063;SDS011;40963;52.168;21.296;2023-06-19T04:16:31;24.27;;;15.05;;
55063;SDS011;40963;52.168;21.296;2023-06-19T04:18:57;24.75;;;14.68;;
55063;SDS011;40963;52.168;21.296;2023-06-19T04:21:23;24.80;;;15.88;;
55063;SDS011;40963;52.168;21.296;2023-06-19T04:23:49;26.80;;;14.95;;
55063;SDS011;40963;52.168;21.296;2023-06-19T04:26:15;22.88;;;14.88;;
55063;SDS011;40963;52.168;21.296;2023-06-19T04:28:40;26.25;;;14.20;;
55063;SDS011;40963;52.168;21.296;2023-06-19T04:31:07;26.95;;;14.38;;
55063;SDS011;40963;52.168;21.296;2023-06-19T04:33:32;23.52;;;14.88;;
55063;SDS011;40963;52.168;21.296;2023-06-19T04:35:58;24.95;;;14.93;;
55063;SDS011;40963;52.168;21.296;2023-06-19T04:38:24;21.60;;;13.73;;
55063;SDS011;40963;52.168;21.296;2023-06-19T04:40:52;23.13;;;13.70;;
55063;SDS011;40963;52.168;21.296;2023-06-19T04:43:18;18.13;;;13.05;;
55063;SDS011;40963;52.168;21.296;2023-06-19T04:45:44;20.67;;;12.45;;
55063;SDS011;40963;52.168;21.296;2023-06-19T04:48:10;16.33;;;11.98;;
55063;SDS011;40963;52.168;21.296;2023-06-19T04:50:36;21.52;;;11.60;;
55063;SDS011;40963;52.168;21.296;2023-06-19T04:53:02;22.80;;;11.93;;
55063;SDS011;40963;52.168;21.296;2023-06-19T04:55:27;18.63;;;11.52;;
55063;SDS011;40963;52.168;21.296;2023-06-19T04:57:53;18.48;;;11.63;;
55063;SDS011;40963;52.168;21.296;2023-06-19T05:00:19;19.77;;;10.98;;
55063;SDS011;40963;52.168;21.296;2023-06-19T05:02:46;14.70;;;10.80;;
55063;SDS011;40963;52.168;21.296;2023-06-19T05:05:12;17.45;;;11.18;;
55063;SDS011;40963;52.168;21.296;2023-06-19T05:07:38;14.38;;;10.50;;
55063;SDS011;40963;52.168;21.296;2023-06-19T05:10:05;15.65;;;10.15;;
55063;SDS011;40963;52.168;21.296;2023-06-19T05:12:31;17.77;;;10.55;;
55063;SDS011;40963;52.168;21.296;2023-06-19T05:14:57;14.68;;;9.60;;
55063;SDS011;40963;52.168;21.296;2023-06-19T05:17:22;17.52;;;9.98;;
55063;SDS011;40963;52.168;21.296;2023-06-19T05:19:48;14.20;;;10.32;;
55063;SDS011;40963;52.168;21.296;2023-06-19T05:22:14;11.75;;;9.40;;
55063;SDS011;40963;52.168;21.296;2023-06-19T05:24:40;12.55;;;9.77;;
55063;SDS011;40963;52.168;21.296;2023-06-19T05:27:05;16.45;;;9.77;;
55063;SDS011;40963;52.168;21.296;2023-06-19T05:29:31;15.65;;;9.60;;
55063;SDS011;40963;52.168;21.296;2023-06-19T05:31:57;10.82;;;9.02;;
55063;SDS011;40963;52.168;21.296;2023-06-19T05:34:22;13.27;;;9.25;;
55063;SDS011;40963;52.168;21.296;2023-06-19T05:36:48;12.75;;;9.13;;
55063;SDS011;40963;52.168;21.296;2023-06-19T05:39:14;13.63;;;9.10;;
55063;SDS011;40963;52.168;21.296;2023-06-19T05:41:39;11.75;;;8.63;;
55063;SDS011;40963;52.168;21.296;2023-06-19T05:44:06;11.60;;;8.48;;
55063;SDS011;40963;52.168;21.296;2023-06-19T05:46:32;10.63;;;8.10;;
55063;SDS011;40963;52.168;21.296;2023-06-19T05:48:57;12.63;;;8.55;;
55063;SDS011;40963;52.168;21.296;2023-06-19T05:51:23;17.23;;;9.85;;
55063;SDS011;40963;52.168;21.296;2023-06-19T05:53:49;10.93;;;8.60;;
55063;SDS011;40963;52.168;21.296;2023-06-19T05:56:15;11.57;;;9.15;;
55063;SDS011;40963;52.168;21.296;2023-06-19T05:58:41;11.23;;;8.82;;
55063;SDS011;40963;52.168;21.296;2023-06-19T06:01:06;12.52;;;8.85;;
55063;SDS011;40963;52.168;21.296;2023-06-19T06:03:32;18.33;;;9.38;;
55063;SDS011;40963;52.168;21.296;2023-06-19T06:05:58;14.30;;;8.85;;
55063;SDS011;40963;52.168;21.296;2023-06-19T06:08:28;9.32;;;7.78;;
55063;SDS011;40963;52.168;21.296;2023-06-19T06:10:54;10.02;;;7.95;;
55063;SDS011;40963;52.168;21.296;2023-06-19T06:13:20;13.02;;;8.52;;
55063;SDS011;40963;52.168;21.296;2023-06-19T06:15:46;13.93;;;8.52;;
55063;SDS011;40963;52.168;21.296;2023-06-19T06:18:11;10.82;;;8.18;;
55063;SDS011;40963;52.168;21.296;2023-06-19T06:20:37;13.52;;;8.05;;
55063;SDS011;40963;52.168;21.296;2023-06-19T06:23:03;10.95;;;7.63;;
55063;SDS011;40963;52.168;21.296;2023-06-19T06:25:28;7.68;;;6.72;;
55063;SDS011;40963;52.168;21.296;2023-06-19T06:27:54;8.75;;;7.38;;
55063;SDS011;40963;52.168;21.296;2023-06-19T06:30:20;11.95;;;8.00;;
55063;SDS011;40963;52.168;21.296;2023-06-19T06:32:46;13.88;;;7.85;;
55063;SDS011;40963;52.168;21.296;2023-06-19T06:35:12;11.60;;;8.38;;
55063;SDS011;40963;52.168;21.296;2023-06-19T06:37:37;13.05;;;8.00;;
55063;SDS011;40963;52.168;21.296;2023-06-19T06:40:03;10.55;;;7.80;;
55063;SDS011;40963;52.168;21.296;2023-06-19T06:42:34;13.73;;;8.18;;
55063;SDS011;40963;52.168;21.296;2023-06-19T06:45:00;11.27;;;8.18;;
55063;SDS011;40963;52.168;21.296;2023-06-19T06:47:25;14.45;;;8.55;;
55063;SDS011;40963;52.168;21.296;2023-06-19T06:49:51;11.07;;;8.20;;
55063;SDS011;40963;52.168;21.296;2023-06-19T06:52:16;18.40;;;7.22;;
55063;SDS011;40963;52.168;21.296;2023-06-19T06:54:42;8.95;;;7.57;;
55063;SDS011;40963;52.168;21.296;2023-06-19T06:57:07;9.27;;;7.57;;
55063;SDS011;40963;52.168;21.296;2023-06-19T06:59:33;8.32;;;7.03;;
55063;SDS011;40963;52.168;21.296;2023-06-19T07:01:59;11.38;;;7.38;;
55063;SDS011;40963;52.168;21.296;2023-06-19T07:04:24;8.38;;;6.63;;
55063;SDS011;40963;52.168;21.296;2023-06-19T07:06:50;9.68;;;7.05;;
55063;SDS011;40963;52.168;21.296;2023-06-19T07:09:16;8.52;;;6.95;;
55063;SDS011;40963;52.168;21.296;2023-06-19T07:11:42;10.15;;;7.15;;
55063;SDS011;40963;52.168;21.296;2023-06-19T07:14:08;8.98;;;6.47;;
55063;SDS011;40963;52.168;21.296;2023-06-19T07:16:34;7.72;;;6.28;;
55063;SDS011;40963;52.168;21.296;2023-06-19T07:18:59;8.07;;;6.18;;
55063;SDS011;40963;52.168;21.296;2023-06-19T07:21:25;7.38;;;6.07;;
55063;SDS011;40963;52.168;21.296;2023-06-19T07:23:53;6.57;;;5.88;;
55063;SDS011;40963;52.168;21.296;2023-06-19T07:26:19;7.93;;;5.85;;
55063;SDS011;40963;52.168;21.296;2023-06-19T07:28:45;7.38;;;6.50;;
55063;SDS011;40963;52.168;21.296;2023-06-19T07:31:10;9.15;;;6.40;;
55063;SDS011;40963;52.168;21.296;2023-06-19T07:33:36;7.10;;;6.40;;
55063;SDS011;40963;52.168;21.296;2023-06-19T07:36:02;6.07;;;5.47;;
55063;SDS011;40963;52.168;21.296;2023-06-19T07:38:27;6.45;;;5.60;;
55063;SDS011;40963;52.168;21.296;2023-06-19T07:40:53;8.35;;;5.43;;
55063;SDS011;40963;52.168;21.296;2023-06-19T07:43:19;5.95;;;5.35;;
55063;SDS011;40963;52.168;21.296;2023-06-19T07:45:47;5.40;;;4.88;;
55063;SDS011;40963;52.168;21.296;2023-06-19T07:48:13;6.38;;;5.07;;
55063;SDS011;40963;52.168;21.296;2023-06-19T07:50:39;5.57;;;5.03;;
55063;SDS011;40963;52.168;21.296;2023-06-19T07:53:04;8.68;;;5.55;;
55063;SDS011;40963;52.168;21.296;2023-06-19T07:55:30;8.60;;;5.82;;
55063;SDS011;40963;52.168;21.296;2023-06-19T07:57:56;8.80;;;6.00;;
55063;SDS011;40963;52.168;21.296;2023-06-19T08:00:22;8.90;;;6.40;;
55063;SDS011;40963;52.168;21.296;2023-06-19T08:02:49;9.45;;;5.97;;
55063;SDS011;40963;52.168;21.296;2023-06-19T08:05:15;9.48;;;6.35;;
55063;SDS011;40963;52.168;21.296;2023-06-19T08:07:41;8.18;;;6.18;;
55063;SDS011;40963;52.168;21.296;2023-06-19T08:10:06;6.97;;;6.28;;
55063;SDS011;40963;52.168;21.296;2023-06-19T08:12:32;6.25;;;5.65;;
55063;SDS011;40963;52.168;21.296;2023-06-19T08:14:59;7.72;;;6.35;;
55063;SDS011;40963;52.168;21.296;2023-06-19T08:17:25;6.47;;;5.82;;
55063;SDS011;40963;52.168;21.296;2023-06-19T08:19:50;6.72;;;6.03;;
55063;SDS011;40963;52.168;21.296;2023-06-19T08:22:16;9.18;;;6.07;;
55063;SDS011;40963;52.168;21.296;2023-06-19T08:24:42;8.93;;;6.15;;
55063;SDS011;40963;52.168;21.296;2023-06-19T08:27:08;9.70;;;6.15;;
55063;SDS011;40963;52.168;21.296;2023-06-19T08:29:33;6.72;;;5.85;;
55063;SDS011;40963;52.168;21.296;2023-06-19T08:31:59;6.05;;;5.18;;
55063;SDS011;40963;52.168;21.296;2023-06-19T08:34:24;6.25;;;5.65;;
55063;SDS011;40963;52.168;21.296;2023-06-19T08:36:50;5.90;;;5.30;;
55063;SDS011;40963;52.168;21.296;2023-06-19T08:39:16;5.68;;;5.15;;
55063;SDS011;40963;52.168;21.296;2023-06-19T08:41:42;5.53;;;4.97;;
55063;SDS011;40963;52.168;21.296;2023-06-19T08:44:08;5.50;;;5.00;;
55063;SDS011;40963;52.168;21.296;2023-06-19T08:46:34;5.43;;;4.93;;
55063;SDS011;40963;52.168;21.296;2023-06-19T08:49:02;7.70;;;4.93;;
55063;SDS011;40963;52.168;21.296;2023-06-19T08:51:28;6.18;;;5.57;;
55063;SDS011;40963;52.168;21.296;2023-06-19T08:54:00;6.32;;;4.85;;
55063;SDS011;40963;52.168;21.296;2023-06-19T08:56:29;5.72;;;5.10;;
55063;SDS011;40963;52.168;21.296;2023-06-19T08:59:07;6.25;;;5.60;;
55063;SDS011;40963;52.168;21.296;2023-06-19T09:01:34;9.70;;;5.78;;
55063;SDS011;40963;52.168;21.296;2023-06-19T09:03:59;6.13;;;5.30;;
55063;SDS011;40963;52.168;21.296;2023-06-19T09:06:25;6.25;;;4.72;;
55063;SDS011;40963;52.168;21.296;2023-06-19T09:08:58;5.57;;;5.05;;
55063;SDS011;40963;52.168;21.296;2023-06-19T09:11:24;6.22;;;5.53;;
55063;SDS011;40963;52.168;21.296;2023-06-19T09:13:56;5.53;;;4.72;;
55063;SDS011;40963;52.168;21.296;2023-06-19T09:16:22;6.63;;;5.32;;
55063;SDS011;40963;52.168;21.296;2023-06-19T09:18:49;5.97;;;5.00;;
55063;SDS011;40963;52.168;21.296;2023-06-19T09:21:19;5.55;;;5.00;;
55063;SDS011;40963;52.168;21.296;2023-06-19T09:23:47;6.80;;;5.40;;
55063;SDS011;40963;52.168;21.296;2023-06-19T09:26:16;5.45;;;4.95;;
55063;SDS011;40963;52.168;21.296;2023-06-19T09:28:43;6.45;;;4.95;;
55063;SDS011;40963;52.168;21.296;2023-06-19T09:31:08;8.77;;;5.05;;
55063;SDS011;40963;52.168;21.296;2023-06-19T09:33:34;6.20;;;4.63;;
55063;SDS011;40963;52.168;21.296;2023-06-19T09:36:03;5.03;;;4.63;;
55063;SDS011;40963;52.168;21.296;2023-06-19T09:38:31;5.32;;;4.82;;
55063;SDS011;40963;52.168;21.296;2023-06-19T09:41:03;5.25;;;4.63;;
55063;SDS011;40963;52.168;21.296;2023-06-19T09:43:47;4.82;;;4.43;;
55063;SDS011;40963;52.168;21.296;2023-06-19T09:46:15;5.20;;;4.70;;
55063;SDS011;40963;52.168;21.296;2023-06-19T09:48:44;5.47;;;4.90;;
55063;SDS011;40963;52.168;21.296;2023-06-19T09:51:18;5.72;;;4.85;;
55063;SDS011;40963;52.168;21.296;2023-06-19T09:53:45;8.52;;;5.10;;
55063;SDS011;40963;52.168;21.296;2023-06-19T09:56:13;8.85;;;4.68;;
55063;SDS011;40963;52.168;21.296;2023-06-19T09:58:40;5.00;;;4.50;;
55063;SDS011;40963;52.168;21.296;2023-06-19T10:01:08;9.65;;;4.75;;
55063;SDS011;40963;52.168;21.296;2023-06-19T10:03:34;5.18;;;4.70;;
55063;SDS011;40963;52.168;21.296;2023-06-19T10:06:01;5.95;;;4.80;;
55063;SDS011;40963;52.168;21.296;2023-06-19T10:08:29;6.53;;;5.05;;
55063;SDS011;40963;52.168;21.296;2023-06-19T10:10:55;6.88;;;4.25;;
55063;SDS011;40963;52.168;21.296;2023-06-19T10:13:22;5.20;;;4.57;;
55063;SDS011;40963;52.168;21.296;2023-06-19T10:15:59;5.50;;;4.97;;
55063;SDS011;40963;52.168;21.296;2023-06-19T10:18:26;5.28;;;4.53;;
55063;SDS011;40963;52.168;21.296;2023-06-19T10:20:53;5.32;;;3.97;;
55063;SDS011;40963;52.168;21.296;2023-06-19T10:23:21;5.53;;;3.90;;
55063;SDS011;40963;52.168;21.296;2023-06-19T10:25:54;5.00;;;3.25;;
55063;SDS011;40963;52.168;21.296;2023-06-19T10:28:23;4.00;;;3.60;;
55063;SDS011;40963;52.168;21.296;2023-06-19T10:30:57;4.40;;;3.95;;
55063;SDS011;40963;52.168;21.296;2023-06-19T10:33:25;4.60;;;4.18;;
55063;SDS011;40963;52.168;21.296;2023-06-19T10:35:52;5.43;;;4.63;;
55063;SDS011;40963;52.168;21.296;2023-06-19T10:38:18;4.38;;;3.97;;
55063;SDS011;40963;52.168;21.296;2023-06-19T10:40:44;6.03;;;4.25;;
55063;SDS011;40963;52.168;21.296;2023-06-19T10:43:11;5.80;;;5.20;;
55063;SDS011;40963;52.168;21.296;2023-06-19T10:45:37;5.63;;;4.60;;
55063;SDS011;40963;52.168;21.296;2023-06-19T10:48:03;7.72;;;4.32;;
55063;SDS011;40963;52.168;21.296;2023-06-19T10:50:33;5.30;;;4.70;;
55063;SDS011;40963;52.168;21.296;2023-06-19T10:53:01;4.93;;;3.90;;
55063;SDS011;40963;52.168;21.296;2023-06-19T10:55:27;4.70;;;4.30;;
55063;SDS011;40963;52.168;21.296;2023-06-19T10:57:52;6.65;;;4.15;;
55063;SDS011;40963;52.168;21.296;2023-06-19T11:00:28;3.72;;;3.42;;
55063;SDS011;40963;52.168;21.296;2023-06-19T11:02:55;4.65;;;4.05;;
55063;SDS011;40963;52.168;21.296;2023-06-19T11:05:22;4.40;;;4.00;;
55063;SDS011;40963;52.168;21.296;2023-06-19T11:07:52;4.68;;;4.28;;
55063;SDS011;40963;52.168;21.296;2023-06-19T11:10:22;4.55;;;4.15;;
55063;SDS011;40963;52.168;21.296;2023-06-19T11:12:50;4.80;;;4.13;;
55063;SDS011;40963;52.168;21.296;2023-06-19T11:15:19;6.30;;;5.03;;
55063;SDS011;40963;52.168;21.296;2023-06-19T11:17:45;7.18;;;4.72;;
55063;SDS011;40963;52.168;21.296;2023-06-19T11:20:12;6.10;;;5.18;;
55063;SDS011;40963;52.168;21.296;2023-06-19T11:22:41;11.40;;;4.80;;
55063;SDS011;40963;52.168;21.296;2023-06-19T11:25:07;6.25;;;4.82;;
55063;SDS011;40963;52.168;21.296;2023-06-19T11:27:36;5.53;;;4.75;;
55063;SDS011;40963;52.168;21.296;2023-06-19T11:30:04;5.32;;;4.82;;
55063;SDS011;40963;52.168;21.296;2023-06-19T11:32:33;5.68;;;5.00;;
55063;SDS011;40963;52.168;21.296;2023-06-19T11:35:09;5.03;;;4.53;;
55063;SDS011;40963;52.168;21.296;2023-06-19T11:37:36;4.95;;;4.55;;
55063;SDS011;40963;52.168;21.296;2023-06-19T11:40:06;5.13;;;4.63;;
55063;SDS011;40963;52.168;21.296;2023-06-19T11:42:51;4.72;;;4.32;;
55063;SDS011;40963;52.168;21.296;2023-06-19T11:45:17;5.53;;;4.95;;
55063;SDS011;40963;52.168;21.296;2023-06-19T11:47:44;5.35;;;4.82;;
55063;SDS011;40963;52.168;21.296;2023-06-19T11:50:10;8.18;;;4.57;;
55063;SDS011;40963;52.168;21.296;2023-06-19T11:52:37;5.32;;;4.82;;
55063;SDS011;40963;52.168;21.296;2023-06-19T11:55:03;9.82;;;4.95;;
55063;SDS011;40963;52.168;21.296;2023-06-19T11:57:29;5.13;;;4.63;;
55063;SDS011;40963;52.168;21.296;2023-06-19T11:59:55;8.38;;;5.15;;
55063;SDS011;40963;52.168;21.296;2023-06-19T12:02:21;7.88;;;5.55;;
55063;SDS011;40963;52.168;21.296;2023-06-19T12:04:46;5.90;;;5.30;;
55063;SDS011;40963;52.168;21.296;2023-06-19T12:07:12;5.80;;;5.20;;
55063;SDS011;40963;52.168;21.296;2023-06-19T12:09:38;5.82;;;5.32;;
55063;SDS011;40963;52.168;21.296;2023-06-19T12:12:05;5.55;;;4.60;;
55063;SDS011;40963;52.168;21.296;2023-06-19T12:14:31;5.88;;;5.28;;
55063;SDS011;40963;52.168;21.296;2023-06-19T12:16:56;6.38;;;4.70;;
55063;SDS011;40963;52.168;21.296;2023-06-19T12:19:22;5.72;;;5.18;;
55063;SDS011;40963;52.168;21.296;2023-06-19T12:21:48;5.47;;;4.88;;
55063;SDS011;40963;52.168;21.296;2023-06-19T12:24:13;6.55;;;4.80;;
55063;SDS011;40963;52.168;21.296;2023-06-19T12:26:39;5.82;;;5.25;;
55063;SDS011;40963;52.168;21.296;2023-06-19T12:29:05;7.88;;;4.80;;
55063;SDS011;40963;52.168;21.296;2023-06-19T12:31:32;5.80;;;5.20;;
55063;SDS011;40963;52.168;21.296;2023-06-19T12:33:58;6.95;;;5.25;;
55063;SDS011;40963;52.168;21.296;2023-06-19T12:36:24;8.73;;;5.78;;
55063;SDS011;40963;52.168;21.296;2023-06-19T12:38:51;6.20;;;5.07;;
55063;SDS011;40963;52.168;21.296;2023-06-19T12:41:18;7.18;;;5.60;;
55063;SDS011;40963;52.168;21.296;2023-06-19T12:43:47;7.03;;;5.57;;
55063;SDS011;40963;52.168;21.296;2023-06-19T12:46:13;7.35;;;5.15;;
55063;SDS011;40963;52.168;21.296;2023-06-19T12:48:39;6.22;;;5.63;;
55063;SDS011;40963;52.168;21.296;2023-06-19T12:51:06;7.15;;;5.40;;
55063;SDS011;40963;52.168;21.296;2023-06-19T12:53:31;6.47;;;5.40;;
55063;SDS011;40963;52.168;21.296;2023-06-19T12:55:57;5.93;;;5.18;;
55063;SDS011;40963;52.168;21.296;2023-06-19T12:58:23;7.15;;;5.07;;
55063;SDS011;40963;52.168;21.296;2023-06-19T13:00:49;8.20;;;4.80;;
55063;SDS011;40963;52.168;21.296;2023-06-19T13:03:15;6.05;;;5.03;;
55063;SDS011;40963;52.168;21.296;2023-06-19T13:05:40;6.03;;;5.43;;
55063;SDS011;40963;52.168;21.296;2023-06-19T13:08:06;6.13;;;5.35;;
55063;SDS011;40963;52.168;21.296;2023-06-19T13:10:32;8.75;;;5.35;;
55063;SDS011;40963;52.168;21.296;2023-06-19T13:12:58;5.85;;;4.75;;
55063;SDS011;40963;52.168;21.296;2023-06-19T13:15:23;5.70;;;5.10;;
55063;SDS011;40963;52.168;21.296;2023-06-19T13:17:49;7.40;;;5.25;;
55063;SDS011;40963;52.168;21.296;2023-06-19T13:20:15;5.40;;;4.88;;
55063;SDS011;40963;52.168;21.296;2023-06-19T13:22:41;10.35;;;5.50;;
55063;SDS011;40963;52.168;21.296;2023-06-19T13:25:07;6.05;;;5.38;;
55063;SDS011;40963;52.168;21.296;2023-06-19T13:27:33;6.32;;;5.20;;
55063;SDS011;40963;52.168;21.296;2023-06-19T13:29:59;9.05;;;5.05;;
55063;SDS011;40963;52.168;21.296;2023-06-19T13:32:26;6.53;;;5.13;;
55063;SDS011;40963;52.168;21.296;2023-06-19T13:34:51;11.95;;;5.07;;
55063;SDS011;40963;52.168;21.296;2023-06-19T13:37:21;6.63;;;5.47;;
55063;SDS011;40963;52.168;21.296;2023-06-19T13:39:48;6.18;;;5.45;;
55063;SDS011;40963;52.168;21.296;2023-06-19T13:42:14;9.15;;;5.80;;
55063;SDS011;40963;52.168;21.296;2023-06-19T13:44:39;5.65;;;5.07;;
55063;SDS011;40963;52.168;21.296;2023-06-19T13:47:05;7.80;;;4.85;;
55063;SDS011;40963;52.168;21.296;2023-06-19T13:49:31;5.82;;;5.15;;
55063;SDS011;40963;52.168;21.296;2023-06-19T13:51:56;5.57;;;4.75;;
55063;SDS011;40963;52.168;21.296;2023-06-19T13:54:22;5.43;;;4.95;;
55063;SDS011;40963;52.168;21.296;2023-06-19T13:56:48;7.28;;;5.20;;
55063;SDS011;40963;52.168;21.296;2023-06-19T13:59:16;8.02;;;5.40;;
55063;SDS011;40963;52.168;21.296;2023-06-19T14:01:41;9.60;;;5.45;;
55063;SDS011;40963;52.168;21.296;2023-06-19T14:04:07;6.10;;;4.88;;
55063;SDS011;40963;52.168;21.296;2023-06-19T14:06:36;6.25;;;4.90;;
55063;SDS011;40963;52.168;21.296;2023-06-19T14:09:03;6.78;;;5.78;;
55063;SDS011;40963;52.168;21.296;2023-06-19T14:11:28;7.95;;;4.88;;
55063;SDS011;40963;52.168;21.296;2023-06-19T14:13:54;5.50;;;4.97;;
55063;SDS011;40963;52.168;21.296;2023-06-19T14:16:20;5.65;;;4.35;;
55063;SDS011;40963;52.168;21.296;2023-06-19T14:18:46;6.97;;;4.35;;
55063;SDS011;40963;52.168;21.296;2023-06-19T14:21:12;5.30;;;4.60;;
55063;SDS011;40963;52.168;21.296;2023-06-19T14:23:38;5.28;;;4.60;;
55063;SDS011;40963;52.168;21.296;2023-06-19T14:26:09;6.50;;;4.68;;